Saturday, July 21, 2018, 8:57 PM EDT
Back to Local

KJFK, Kennedy International Airport

Location: Rosedale, NY, United States Lat: 40.633
Local Time: 8:57 PM EDT ( 0:57 GMT) Lon: -73.767
Time Zone: US/Eastern Elev: 13 ft

Show me the last for .
Show Coded

Time T Td Feel RH Dir Speed Gust Alt SLP Vis Weather Sky Remarks
2018-07-21 19:51 68 62 - 81 70° 16 - 29.97 29.97 6 -RA BKN017 OVC024 1-hr Precip Total: 0.01"
6-hr Precip Total (8pm): 0.01"
6-hr Min Temp (8pm): 68.0°F
6-hr Max Temp (8pm): 75.9°F
2018-07-21 19:15 71 58 76 63 70° 18 25 29.98 - 10 -RA BKN026 OVC034 1-hr Precip Total: Trace
2018-07-21 18:51 71 56 76 58 80° 15 - 29.99 29.99 10 -RA FEW030 BKN040 OVC055 1-hr Precip Total: Trace
2018-07-21 17:51 72 56 76 57 80° 18 - 30.00 30.00 10 FEW035 BKN047 OVC060 None
2018-07-21 16:51 73 59 77 61 90° 15 - 30.02 30.02 10 FEW035 BKN075 BKN150 OVC250 None
2018-07-21 15:51 73 60 77 63 90° 18 - 30.03 30.03 10 SCT039 BKN150 OVC250 None
2018-07-21 14:51 74 61 77 64 100° 21 - 30.05 30.05 10 SCT035 SCT150 OVC250 Peak wind: 32 mph (28 kts) from 90° at 36 min
2018-07-21 13:51 76 60 78 58 110° 21 - 30.06 30.06 10 SCT035 SCT150 OVC250 6-hr Min Temp (2pm): 72.0°F
6-hr Max Temp (2pm): 77.0°F
2018-07-21 12:51 76 60 78 58 90° 20 26 30.08 30.08 10 SCT032 SCT150 BKN250 None
2018-07-21 11:51 76 60 78 58 110° 18 - 30.09 30.09 10 BKN033 BKN150 BKN250 None
2018-07-21 10:51 75 60 78 59 90° 17 - 30.10 30.10 10 SCT035 SCT150 BKN250 None
2018-07-21 09:51 74 59 77 59 90° 14 22 30.10 30.10 10 SCT035 BKN150 BKN250 Virga in the vinicity
2018-07-21 08:51 74 56 77 53 110° 13 - 30.09 30.09 10 FEW035 SCT150 BKN250 Virga in the vinicity
2018-07-21 07:51 72 61 76 68 70° 12 - 30.09 30.09 10 FEW035 BKN150 BKN250 6-hr Min Temp (8am): 66.0°F
6-hr Max Temp (8am): 72.0°F
2018-07-21 06:51 69 63 - 80 70° 6 - 30.09 30.09 10 SCT034 BKN150 BKN250 None
2018-07-21 05:51 66 62 - 87 50° 6 - 30.09 30.09 10 SCT032 SCT150 BKN250 None
2018-07-21 04:51 67 61 - 81 70° 5 - 30.10 30.10 10 SCT032 BKN150 BKN250 None
2018-07-21 03:51 68 61 - 78 120° 5 - 30.10 30.10 10 SCT032 SCT150 BKN250 None
2018-07-21 02:51 69 61 - 75 150° 6 - 30.11 30.10 10 SCT032 SCT150 BKN250 None
2018-07-21 01:51 70 60 - 70 150° 8 - 30.11 30.10 10 SCT033 BKN150 BKN250 6-hr Min Temp (2am): 70.0°F
6-hr Max Temp (2am): 73.0°F
2018-07-21 00:51 70 61 - 73 150° 9 - 30.12 30.12 10 FEW040 SCT150 BKN250 24-hr Min Temp (1am): 66.0°F
24-hr Max Temp (1am): 80.1°F
2018-07-20 23:51 71 60 76 68 150° 9 - 30.13 30.12 10 FEW040 SCT150 BKN250 None
2018-07-20 22:51 71 60 76 68 150° 7 - 30.14 30.14 10 FEW040 SCT150 BKN250 None
2018-07-20 21:51 71 60 76 68 140° 8 - 30.14 30.13 10 FEW040 FEW160 BKN250 None

Support USWX by starting your Amazon purchase here.